createdAt,value
2024-05-09T00:04:16.834Z,17.10
2024-05-09T00:09:24.401Z,16.98
2024-05-09T00:14:29.310Z,16.84
2024-05-09T00:19:34.307Z,16.56
2024-05-09T00:24:41.916Z,16.40
2024-05-09T00:29:46.868Z,16.37
2024-05-09T00:34:51.715Z,16.33
2024-05-09T00:39:59.239Z,16.15
2024-05-09T00:45:04.073Z,16.45
2024-05-09T00:50:15.491Z,16.65
2024-05-09T00:55:26.931Z,17.11
2024-05-09T01:00:38.420Z,17.32
2024-05-09T01:05:45.456Z,17.43
2024-05-09T01:10:53.287Z,17.47
2024-05-09T01:15:58.434Z,17.34
2024-05-09T01:21:04.559Z,17.19
2024-05-09T01:26:12.135Z,17.13
2024-05-09T01:31:17.108Z,16.47
2024-05-09T01:36:21.914Z,16.64
2024-05-09T01:41:29.544Z,16.92
2024-05-09T01:46:34.530Z,16.95
2024-05-09T01:51:39.360Z,17.09
2024-05-09T01:56:46.900Z,17.17
2024-05-09T02:01:56.832Z,16.39
2024-05-09T02:07:02.643Z,16.02
2024-05-09T02:12:10.647Z,15.84
2024-05-09T02:17:15.764Z,15.96
2024-05-09T02:22:20.663Z,15.70
2024-05-09T02:27:28.267Z,15.73
2024-05-09T02:32:33.293Z,15.73
2024-05-09T02:37:38.215Z,15.84
2024-05-09T02:42:45.773Z,15.84
2024-05-09T02:47:50.811Z,15.77
2024-05-09T02:52:55.724Z,15.68
2024-05-09T02:58:03.424Z,15.74
2024-05-09T03:03:10.009Z,15.85
2024-05-09T03:08:16.973Z,15.98
2024-05-09T03:13:24.506Z,15.86
2024-05-09T03:18:29.474Z,15.75
2024-05-09T03:23:36.424Z,15.88
2024-05-09T03:28:44.377Z,15.74
2024-05-09T03:33:49.409Z,15.77
2024-05-09T03:38:54.799Z,16.07
2024-05-09T03:44:02.431Z,16.22
2024-05-09T03:49:07.564Z,15.88
2024-05-09T03:54:12.882Z,15.73
2024-05-09T03:59:20.476Z,15.57
2024-05-09T04:04:25.429Z,15.77
2024-05-09T04:09:30.479Z,15.77
2024-05-09T04:14:38.048Z,15.78
2024-05-09T04:19:42.890Z,15.83
2024-05-09T04:24:47.742Z,15.98
2024-05-09T04:29:55.292Z,16.02
2024-05-09T04:35:00.248Z,15.91
2024-05-09T04:40:06.985Z,15.89
2024-05-09T04:45:16.546Z,16.17
2024-05-09T04:50:29.963Z,16.20
2024-05-09T04:55:41.026Z,16.31
2024-05-09T05:00:48.557Z,16.51
2024-05-09T05:05:53.419Z,16.61
2024-05-09T05:10:58.461Z,16.65
2024-05-09T05:16:06.051Z,16.61
2024-05-09T05:21:10.904Z,16.63
2024-05-09T05:26:20.499Z,16.56
2024-05-09T05:31:28.217Z,16.57
2024-05-09T05:36:33.077Z,16.58
2024-05-09T05:41:38.064Z,16.59
2024-05-09T05:46:45.673Z,16.64
2024-05-09T05:51:50.525Z,16.64
2024-05-09T05:56:55.333Z,16.69
2024-05-09T06:02:02.930Z,16.60
2024-05-09T06:07:08.052Z,16.58
2024-05-09T06:12:13.127Z,16.74
2024-05-09T06:17:20.946Z,16.90
2024-05-09T06:22:25.894Z,16.91
2024-05-09T06:27:30.705Z,16.97
2024-05-09T06:32:38.391Z,17.13
2024-05-09T06:37:43.397Z,17.29
2024-05-09T06:42:48.248Z,17.53
2024-05-09T06:47:56.065Z,17.80
2024-05-09T06:53:01.090Z,17.82
2024-05-09T06:58:07.313Z,17.90
2024-05-09T07:03:17.909Z,18.05
2024-05-09T07:08:23.970Z,18.16
2024-05-09T07:13:28.935Z,18.40
2024-05-09T07:18:36.686Z,18.46
2024-05-09T07:23:43.606Z,18.75
2024-05-09T07:28:49.374Z,18.78
2024-05-09T07:33:57.116Z,18.87
2024-05-09T07:39:01.980Z,19.05
2024-05-09T07:44:06.856Z,18.95
2024-05-09T07:54:24.069Z,18.85
2024-05-09T07:59:28.987Z,18.93
2024-05-09T08:04:36.702Z,18.93
2024-05-09T08:09:41.604Z,18.94
2024-05-09T08:14:46.464Z,18.97
2024-05-09T08:19:53.967Z,18.93
2024-05-09T08:24:58.810Z,19.05
2024-05-09T08:30:03.990Z,19.21
2024-05-09T08:35:12.857Z,19.34
2024-05-09T08:40:24.087Z,19.39
2024-05-09T08:45:36.813Z,19.63
2024-05-09T08:50:45.815Z,19.83
2024-05-09T08:55:52.460Z,19.92
2024-05-09T09:00:58.101Z,20.00
2024-05-09T09:06:08.526Z,20.17
2024-05-09T09:11:13.516Z,20.32
2024-05-09T09:16:18.599Z,20.24
2024-05-09T09:21:26.493Z,20.46
2024-05-09T09:26:33.488Z,20.51
2024-05-09T09:31:39.477Z,20.76
2024-05-09T09:36:47.594Z,20.83
2024-05-09T09:41:52.524Z,20.79
2024-05-09T09:46:58.965Z,20.87
2024-05-09T09:52:08.467Z,21.02
2024-05-09T09:57:15.753Z,21.21
2024-05-09T10:02:20.734Z,21.38
2024-05-09T10:07:28.479Z,21.25
2024-05-09T10:12:33.420Z,21.32
2024-05-09T10:17:38.587Z,21.29
2024-05-09T10:22:52.336Z,21.21
2024-05-09T10:27:57.945Z,21.25
2024-05-09T10:33:03.348Z,21.43
2024-05-09T10:38:11.599Z,21.60
2024-05-09T10:43:21.166Z,21.44
2024-05-09T10:48:26.216Z,21.51
2024-05-09T10:53:33.867Z,21.52
2024-05-09T10:58:38.767Z,21.57
2024-05-09T11:03:43.886Z,21.66
2024-05-09T11:08:52.412Z,21.59
2024-05-09T11:13:57.439Z,21.68
2024-05-09T11:19:02.481Z,21.98
2024-05-09T11:24:11.565Z,21.99
2024-05-09T11:29:19.230Z,22.07
2024-05-09T11:34:24.548Z,22.27
2024-05-09T11:39:32.173Z,22.64
2024-05-09T11:44:37.015Z,22.84
2024-05-09T11:49:41.914Z,23.22
2024-05-09T11:54:49.554Z,23.30
2024-05-09T11:59:54.405Z,23.16
2024-05-09T12:04:59.410Z,23.19
2024-05-09T12:10:11.907Z,23.60
2024-05-09T12:15:21.370Z,23.70
2024-05-09T12:20:34.379Z,23.81
2024-05-09T12:25:44.880Z,24.03
2024-05-09T12:30:50.898Z,24.39
2024-05-09T12:35:55.741Z,24.16
2024-05-09T12:41:03.266Z,24.58
2024-05-09T12:46:08.390Z,24.59
2024-05-09T12:51:13.229Z,24.74
2024-05-09T12:56:20.824Z,24.98
2024-05-09T13:01:25.747Z,25.03
2024-05-09T13:06:30.771Z,25.01
2024-05-09T13:11:38.463Z,25.15
2024-05-09T13:16:43.324Z,25.20
2024-05-09T13:21:48.250Z,25.28
2024-05-09T13:26:55.792Z,25.11
2024-05-09T13:32:00.747Z,25.23
2024-05-09T13:37:05.837Z,25.40
2024-05-09T13:42:13.401Z,25.50
2024-05-09T13:47:18.622Z,25.73
2024-05-09T13:52:23.704Z,26.08
2024-05-09T13:57:31.690Z,25.94
2024-05-09T14:02:36.809Z,26.29
2024-05-09T14:07:42.000Z,26.34
2024-05-09T14:12:49.558Z,26.50
2024-05-09T14:17:54.670Z,26.75
2024-05-09T14:22:59.800Z,26.76
2024-05-09T14:28:08.152Z,26.96
2024-05-09T14:33:16.459Z,26.92
2024-05-09T14:38:21.519Z,27.25
2024-05-09T14:43:29.184Z,27.10
2024-05-09T14:48:34.351Z,27.50
2024-05-09T14:53:39.247Z,27.65
2024-05-09T14:58:47.291Z,27.58
2024-05-09T15:03:52.242Z,27.73
2024-05-09T15:08:58.046Z,27.85
2024-05-09T15:14:05.564Z,28.09
2024-05-09T15:19:11.715Z,27.94
2024-05-09T15:24:16.633Z,27.84
2024-05-09T15:29:24.332Z,28.13
2024-05-09T15:34:30.134Z,28.32
2024-05-09T15:39:35.194Z,28.25
2024-05-09T15:44:42.755Z,27.91
2024-05-09T15:49:47.778Z,27.96
2024-05-09T15:54:56.136Z,27.71
2024-05-09T16:00:07.756Z,27.52
2024-05-09T16:05:15.525Z,27.54
2024-05-09T16:10:32.403Z,27.47
2024-05-09T16:15:46.273Z,27.57
2024-05-09T16:21:00.739Z,27.57
2024-05-09T16:26:07.494Z,27.54
2024-05-09T16:31:18.000Z,27.47
2024-05-09T16:36:24.847Z,27.43
2024-05-09T16:41:30.471Z,27.37
2024-05-09T16:46:38.831Z,27.29
2024-05-09T16:51:47.032Z,27.17
2024-05-09T16:56:52.424Z,27.21
2024-05-09T17:02:00.762Z,27.29
2024-05-09T17:07:07.016Z,27.43
2024-05-09T17:12:15.433Z,27.44
2024-05-09T17:17:24.308Z,27.41
2024-05-09T17:22:31.128Z,27.44
2024-05-09T17:27:36.440Z,27.43
2024-05-09T17:32:44.761Z,27.32
2024-05-09T17:37:51.530Z,27.39
2024-05-09T17:43:03.836Z,27.30
2024-05-09T17:48:16.406Z,27.14
2024-05-09T17:53:24.861Z,26.92
2024-05-09T17:58:33.899Z,26.69
2024-05-09T18:03:43.554Z,26.66
2024-05-09T18:08:53.585Z,26.52
2024-05-09T18:14:01.782Z,26.44
2024-05-09T18:19:12.223Z,26.25
2024-05-09T18:24:36.748Z,26.04
2024-05-09T18:29:42.235Z,25.82
2024-05-09T18:34:50.488Z,25.73
2024-05-09T18:39:55.401Z,25.63
2024-05-09T18:45:01.472Z,25.54
2024-05-09T18:50:14.827Z,25.20
2024-05-09T18:55:25.684Z,24.76
2024-05-09T19:00:35.765Z,24.42
2024-05-09T19:05:46.916Z,24.10
2024-05-09T19:10:52.752Z,23.80
2024-05-09T19:15:57.798Z,23.55
2024-05-09T19:21:05.328Z,23.36
2024-05-09T19:26:10.132Z,23.05
2024-05-09T19:31:15.165Z,22.94
2024-05-09T19:36:22.698Z,22.65
2024-05-09T19:41:27.653Z,22.58
2024-05-09T19:46:32.601Z,22.55
2024-05-09T19:51:40.146Z,22.30
2024-05-09T19:56:45.527Z,22.05
2024-05-09T20:01:50.734Z,21.86
2024-05-09T20:06:58.382Z,21.98
2024-05-09T20:12:03.263Z,22.09
2024-05-09T20:17:08.205Z,21.69
2024-05-09T20:22:15.887Z,21.66
2024-05-09T20:27:20.869Z,21.45
2024-05-09T20:32:27.020Z,21.34
2024-05-09T20:37:34.598Z,21.17
2024-05-09T20:42:39.440Z,21.44
2024-05-09T20:47:44.362Z,21.42
2024-05-09T20:52:51.904Z,21.12
2024-05-09T20:57:56.946Z,20.94
2024-05-09T21:03:02.023Z,20.85
2024-05-09T21:08:09.929Z,20.63
2024-05-09T21:13:15.050Z,20.80
2024-05-09T21:18:19.959Z,20.74
2024-05-09T21:23:27.473Z,20.73
2024-05-09T21:28:32.622Z,20.90
2024-05-09T21:33:38.029Z,20.98
2024-05-09T21:38:46.072Z,20.98
2024-05-09T21:43:50.927Z,20.90
2024-05-09T21:48:56.557Z,20.63
2024-05-09T21:54:04.095Z,20.74
2024-05-09T21:59:08.953Z,20.70
2024-05-09T22:04:13.966Z,20.58
2024-05-09T22:09:21.610Z,20.43
2024-05-09T22:14:26.429Z,20.22
2024-05-09T22:19:32.145Z,19.96
2024-05-09T22:24:39.688Z,19.73
2024-05-09T22:29:44.493Z,19.37
2024-05-09T22:34:49.385Z,19.13
2024-05-09T22:39:56.927Z,18.91
2024-05-09T22:45:01.741Z,18.89
2024-05-09T22:50:08.978Z,18.74
2024-05-09T22:55:20.460Z,18.74
2024-05-09T23:00:31.306Z,18.62
2024-05-09T23:05:37.645Z,18.57
2024-05-09T23:10:45.244Z,18.52
2024-05-09T23:15:50.177Z,18.48
2024-05-09T23:20:55.035Z,18.38
2024-05-09T23:26:02.526Z,18.32
2024-05-09T23:31:07.782Z,18.18
2024-05-09T23:36:12.638Z,18.10
2024-05-09T23:41:20.653Z,17.97
2024-05-09T23:46:25.896Z,17.91
2024-05-09T23:51:30.800Z,18.03
2024-05-09T23:56:38.323Z,18.19
